Time;durP1;ratioP1;P1;durP2;ratioP2;P2;SDS_P1;SDS_P2;PMS_P1;PMS_P2;Temp;Humidity;BMP_temperature;BMP_pressure;BME280_temperature;BME280_humidity;BME280_pressure;Samples;Min_cycle;Max_cycle;Signal;HPM_P1;HPM_P2
2023/10/25 00:01:33;;;;;;;3.27;0.93;;;;;;;8.76;100.00;148349.28;5017894;28;20643;-52
2023/10/25 00:04:01;;;;;;;2.77;0.70;;;;;;;8.78;100.00;148354.25;5014400;28;20219;-52
2023/10/25 00:06:27;;;;;;;1.33;0.80;;;;;;;8.79;100.00;148356.72;5017354;28;20236;-52
2023/10/25 00:08:54;;;;;;;2.80;0.90;;;;;;;8.81;100.00;148360.44;5015261;28;20225;-52
2023/10/25 00:11:21;;;;;;;2.53;0.80;;;;;;;8.80;100.00;148357.97;5016839;28;20597;-51
2023/10/25 00:13:47;;;;;;;3.00;1.00;;;;;;;8.81;100.00;148361.72;5016699;28;20227;-51
2023/10/25 00:16:14;;;;;;;4.70;1.63;;;;;;;8.85;100.00;148371.66;5018839;28;20230;-52
2023/10/25 00:18:41;;;;;;;3.27;0.63;;;;;;;8.88;100.00;148377.88;5015486;28;20901;-54
2023/10/25 00:21:09;;;;;;;2.83;0.90;;;;;;;8.85;100.00;148371.66;5015912;28;20614;-52
2023/10/25 00:23:35;;;;;;;3.00;0.80;;;;;;;8.86;100.00;148372.88;5014577;28;20223;-53
2023/10/25 00:26:02;;;;;;;1.57;0.60;;;;;;;8.84;100.00;148367.91;5013839;28;20229;-51
2023/10/25 00:28:28;;;;;;;5.73;0.77;;;;;;;8.83;100.00;148365.44;5018893;28;20233;-53
2023/10/25 00:30:55;;;;;;;2.60;0.63;;;;;;;8.77;100.00;148350.50;5000410;28;20225;-52
2023/10/25 00:33:22;;;;;;;1.23;0.63;;;;;;;8.71;100.00;148336.84;5001235;28;20311;-53
2023/10/25 00:35:48;;;;;;;0.90;0.60;;;;;;;8.67;100.00;148328.09;5012395;28;20233;-54
2023/10/25 00:38:16;;;;;;;3.33;0.73;;;;;;;8.68;100.00;148330.59;5006191;28;20252;-52
2023/10/25 00:40:43;;;;;;;2.47;0.77;;;;;;;8.74;100.00;148343.03;5003373;28;20229;-52
2023/10/25 00:43:15;;;;;;;6.83;0.87;;;;;;;8.72;100.00;148339.31;5014156;28;20627;-52
2023/10/25 00:45:56;;;;;;;1.87;0.70;;;;;;;8.71;100.00;148336.84;5005645;28;20234;-53
2023/10/25 00:48:23;;;;;;;1.20;0.70;;;;;;;8.68;100.00;148330.59;5001337;28;20246;-54
2023/10/25 00:50:50;;;;;;;4.97;0.90;;;;;;;8.71;100.00;148336.84;4994276;28;20707;-51
2023/10/25 00:53:18;;;;;;;3.57;0.77;;;;;;;8.77;100.00;148350.50;4999509;28;20245;-54
2023/10/25 00:55:45;;;;;;;2.30;0.70;;;;;;;8.75;100.00;148346.78;4998274;28;20228;-54
2023/10/25 00:58:12;;;;;;;4.90;1.07;;;;;;;8.76;100.00;148349.28;5000677;28;20225;-52
2023/10/25 01:00:39;;;;;;;1.23;0.63;;;;;;;8.78;100.00;148354.25;5018834;28;20216;-54
2023/10/25 01:03:08;;;;;;;4.93;0.90;;;;;;;8.81;100.00;148360.44;4996659;28;20681;-52
2023/10/25 01:05:37;;;;;;;6.67;1.00;;;;;;;8.86;100.00;148374.16;5006316;28;20212;-54
2023/10/25 01:08:04;;;;;;;2.03;0.67;;;;;;;8.88;100.00;148376.66;5013396;28;20223;-53
2023/10/25 01:10:38;;;;;;;2.93;0.70;;;;;;;8.90;100.00;148382.84;5006798;28;20287;-52
2023/10/25 01:13:04;;;;;;;6.77;0.90;;;;;;;8.96;100.00;148397.78;4996739;28;20235;-52
2023/10/25 01:15:36;;;;;;;0.93;0.60;;;;;;;8.99;100.00;148405.25;5004391;28;20221;-52
2023/10/25 01:18:03;;;;;;;1.70;0.70;;;;;;;9.04;100.00;148415.19;4996398;28;20244;-52
2023/10/25 01:20:32;;;;;;;7.23;2.13;;;;;;;9.06;100.00;148420.16;5001674;28;20229;-53
2023/10/25 01:23:00;;;;;;;2.03;0.80;;;;;;;9.09;100.00;148427.63;4997742;28;20684;-51
2023/10/25 01:25:27;;;;;;;3.43;1.00;;;;;;;9.06;100.00;148421.38;4998589;28;20225;-52
2023/10/25 01:27:53;;;;;;;3.70;0.80;;;;;;;9.06;100.00;148420.16;4997530;28;20566;-52
2023/10/25 01:30:20;;;;;;;1.10;0.60;;;;;;;9.04;100.00;148416.41;4998151;28;20233;-54
2023/10/25 01:32:47;;;;;;;2.10;0.60;;;;;;;9.04;100.00;148416.41;4995137;28;20236;-52
2023/10/25 01:35:13;;;;;;;1.90;0.73;;;;;;;9.05;100.00;148418.91;5000681;28;20220;-52
2023/10/25 01:37:40;;;;;;;3.53;0.60;;;;;;;9.06;100.00;148421.38;5005032;28;20692;-52
2023/10/25 01:40:09;;;;;;;1.33;0.63;;;;;;;9.06;100.00;148420.16;5011903;28;20236;-52
2023/10/25 01:42:36;;;;;;;0.97;0.50;;;;;;;9.06;100.00;148420.16;5013144;28;20311;-54
2023/10/25 01:45:03;;;;;;;5.23;0.90;;;;;;;9.05;100.00;148418.91;5003336;28;20228;-54
2023/10/25 01:47:30;;;;;;;2.73;0.60;;;;;;;9.03;100.00;148413.91;5000470;28;20231;-54
2023/10/25 01:49:56;;;;;;;2.63;0.60;;;;;;;8.99;100.00;148405.25;5012807;28;20225;-54
2023/10/25 01:52:23;;;;;;;1.10;0.50;;;;;;;9.00;100.00;148406.50;4998689;28;20244;-55
2023/10/25 01:54:51;;;;;;;0.53;0.50;;;;;;;8.97;100.00;148400.25;5012194;28;20229;-52
2023/10/25 01:57:19;;;;;;;1.33;0.60;;;;;;;8.95;100.00;148395.28;5000683;28;20285;-54
2023/10/25 01:59:46;;;;;;;6.33;1.30;;;;;;;8.89;100.00;148380.34;4996270;28;20288;-52
2023/10/25 02:02:13;;;;;;;6.20;0.80;;;;;;;8.91;100.00;148384.09;4997937;28;20251;-52
2023/10/25 02:04:40;;;;;;;4.23;0.70;;;;;;;8.90;100.00;148381.63;4997388;28;20220;-53
2023/10/25 02:07:06;;;;;;;1.70;0.70;;;;;;;8.87;100.00;148375.38;5002917;28;20228;-53
2023/10/25 02:09:33;;;;;;;2.90;0.70;;;;;;;8.86;100.00;148374.16;4997726;28;20231;-53
2023/10/25 02:11:59;;;;;;;3.13;0.60;;;;;;;8.85;100.00;148370.41;5010654;28;20223;-53
2023/10/25 02:14:27;;;;;;;2.30;0.60;;;;;;;8.82;100.00;148364.19;4997945;28;20230;-52
2023/10/25 02:16:54;;;;;;;1.73;0.60;;;;;;;8.83;100.00;148365.44;4998187;28;20237;-52
2023/10/25 02:19:21;;;;;;;6.20;0.70;;;;;;;8.84;100.00;148369.19;5000563;28;20229;-52
2023/10/25 02:21:47;;;;;;;5.77;0.60;;;;;;;8.85;100.00;148370.41;5013380;28;20209;-52
2023/10/25 02:24:17;;;;;;;2.20;0.47;;;;;;;8.85;100.00;148371.66;5014295;28;20875;-53
2023/10/25 02:26:44;;;;;;;3.27;0.67;;;;;;;8.83;100.00;148365.44;5012178;28;20239;-54
2023/10/25 02:29:11;;;;;;;2.60;0.70;;;;;;;8.82;100.00;148362.94;5002158;28;20229;-55
2023/10/25 02:31:39;;;;;;;0.93;0.60;;;;;;;8.82;100.00;148362.94;4997829;28;20580;-55
2023/10/25 02:34:05;;;;;;;4.10;0.80;;;;;;;8.81;100.00;148360.44;5011675;28;20237;-55
2023/10/25 02:36:34;;;;;;;1.10;0.57;;;;;;;8.85;100.00;148371.66;5014583;28;20228;-54
2023/10/25 02:39:01;;;;;;;2.57;0.70;;;;;;;8.80;100.00;148357.97;4996294;28;20231;-52
2023/10/25 02:41:29;;;;;;;6.63;0.93;;;;;;;8.77;100.00;148351.75;4999002;28;20239;-52
2023/10/25 02:43:56;;;;;;;2.20;0.87;;;;;;;8.76;100.00;148348.00;4993876;28;20230;-52
2023/10/25 02:46:23;;;;;;;3.97;0.93;;;;;;;8.69;100.00;148331.84;5003102;28;20242;-52
2023/10/25 02:48:52;;;;;;;4.67;0.70;;;;;;;8.67;100.00;148328.09;5002265;28;20236;-52
2023/10/25 02:51:19;;;;;;;2.23;0.90;;;;;;;8.60;100.00;148310.69;5005361;28;20233;-52
2023/10/25 02:53:45;;;;;;;1.53;0.67;;;;;;;8.60;100.00;148309.47;4997716;28;20229;-52
2023/10/25 02:56:12;;;;;;;1.43;0.53;;;;;;;8.59;100.00;148306.97;4997157;28;20217;-52
2023/10/25 02:58:40;;;;;;;2.10;0.70;;;;;;;8.55;100.00;148299.50;5000196;28;20216;-51
2023/10/25 03:01:07;;;;;;;4.20;0.90;;;;;;;8.55;100.00;148299.50;5013039;28;20253;-52
2023/10/25 03:03:35;;;;;;;5.13;0.70;;;;;;;8.54;100.00;148297.03;4999722;28;20217;-51
2023/10/25 03:06:03;;;;;;;5.17;1.07;;;;;;;8.55;100.00;148298.25;5002343;28;20235;-51
2023/10/25 03:08:31;;;;;;;7.50;1.37;;;;;;;8.54;100.00;148295.75;5014914;28;20225;-52
2023/10/25 03:10:58;;;;;;;3.67;0.90;;;;;;;8.52;100.00;148290.78;5000791;28;20231;-51
2023/10/25 03:13:24;;;;;;;6.03;0.80;;;;;;;8.50;100.00;148287.06;5004092;28;20248;-54
2023/10/25 03:15:51;;;;;;;1.90;0.50;;;;;;;8.48;100.00;148280.84;4996903;28;20222;-54
2023/10/25 03:18:18;;;;;;;3.50;0.67;;;;;;;8.46;100.00;148275.84;5002010;28;20234;-54
2023/10/25 03:20:45;;;;;;;3.63;0.73;;;;;;;8.41;100.00;148265.91;4997152;28;20676;-54
2023/10/25 03:23:13;;;;;;;1.10;0.70;;;;;;;8.44;100.00;148270.88;5016729;28;20225;-51
2023/10/25 03:25:40;;;;;;;2.17;0.80;;;;;;;8.38;100.00;148257.19;5007562;28;20226;-53
2023/10/25 03:28:07;;;;;;;3.37;0.60;;;;;;;8.33;100.00;148246.00;5017805;28;20260;-52
2023/10/25 03:33:02;;;;;;;0.73;0.50;;;;;;;8.09;100.00;148187.53;4983560;28;20290;-53
2023/10/25 03:35:29;;;;;;;1.63;0.60;;;;;;;7.98;100.00;148161.44;5006594;28;20228;-51
2023/10/25 03:37:56;;;;;;;3.63;0.60;;;;;;;7.89;100.00;148139.06;5019291;28;20229;-51
2023/10/25 03:40:24;;;;;;;1.70;0.50;;;;;;;7.78;100.00;148114.19;4979885;28;20240;-51
2023/10/25 03:42:51;;;;;;;5.50;0.97;;;;;;;7.67;100.00;148088.13;5020146;28;20228;-51
2023/10/25 03:45:17;;;;;;;4.03;1.00;;;;;;;7.68;100.00;148089.34;5025380;28;20232;-50
2023/10/25 03:47:44;;;;;;;2.33;0.80;;;;;;;7.69;100.00;148091.81;5022073;28;20221;-52
2023/10/25 03:50:13;;;;;;;2.40;1.00;;;;;;;7.74;100.00;148103.03;5025242;28;20805;-52
2023/10/25 03:52:39;;;;;;;1.27;0.50;;;;;;;7.67;100.00;148088.13;5025355;28;20226;-53
2023/10/25 03:55:07;;;;;;;3.97;0.80;;;;;;;7.52;100.00;148052.03;5022925;28;20236;-52
2023/10/25 03:57:35;;;;;;;2.23;0.53;;;;;;;7.43;100.00;148028.44;5026966;28;20221;-51
2023/10/25 04:00:03;;;;;;;1.27;0.57;;;;;;;7.31;100.00;147999.88;5010646;28;20655;-52
2023/10/25 04:02:38;;;;;;;2.40;0.50;;;;;;;7.25;100.00;147986.19;5026997;28;20358;-54
2023/10/25 04:05:05;;;;;;;2.10;0.70;;;;;;;7.17;100.00;147966.31;5005650;28;20235;-51
2023/10/25 04:07:32;;;;;;;3.00;0.50;;;;;;;7.13;100.00;147957.63;5026729;28;20731;-52
2023/10/25 04:09:59;;;;;;;1.77;0.40;;;;;;;7.04;100.00;147936.47;5023782;28;20215;-52
2023/10/25 04:12:27;;;;;;;4.73;0.60;;;;;;;6.99;100.00;147922.84;5026478;28;20240;-53
2023/10/25 04:14:55;;;;;;;1.57;0.70;;;;;;;6.92;100.00;147906.66;5023096;28;20282;-52
2023/10/25 04:17:22;;;;;;;2.07;0.60;;;;;;;6.90;100.00;147901.69;5025893;28;20238;-51
2023/10/25 04:19:48;;;;;;;2.03;0.50;;;;;;;6.87;100.00;147895.50;5023258;28;20712;-51
2023/10/25 04:22:15;;;;;;;1.90;0.50;;;;;;;6.90;100.00;147901.69;5026680;28;20579;-51
2023/10/25 04:24:42;;;;;;;0.60;0.50;;;;;;;6.87;100.00;147894.28;5025271;28;20230;-53
2023/10/25 04:27:08;;;;;;;7.37;0.87;;;;;;;6.82;100.00;147881.88;5024449;28;20240;-52
2023/10/25 04:29:35;;;;;;;0.97;0.60;;;;;;;6.77;100.00;147870.66;5014375;28;20224;-54
2023/10/25 04:32:03;;;;;;;0.80;0.43;;;;;;;6.75;100.00;147866.97;5021199;28;20240;-52
2023/10/25 04:34:30;;;;;;;1.83;0.80;;;;;;;6.69;100.00;147852.03;5024219;28;20235;-52
2023/10/25 04:36:56;;;;;;;2.50;0.57;;;;;;;6.70;100.00;147853.25;5022210;28;20322;-51
2023/10/25 04:39:23;;;;;;;2.33;0.50;;;;;;;6.76;100.00;147868.16;5026141;28;20243;-52
2023/10/25 04:41:50;;;;;;;3.93;0.63;;;;;;;6.82;100.00;147883.09;5020861;28;20224;-51
2023/10/25 04:44:16;;;;;;;2.83;0.53;;;;;;;6.83;100.00;147885.56;5025761;28;20723;-51
2023/10/25 04:46:43;;;;;;;4.23;0.60;;;;;;;6.88;100.00;147896.78;5023094;28;20223;-53
2023/10/25 04:49:11;;;;;;;0.60;0.60;;;;;;;6.97;100.00;147919.09;5025774;28;20587;-52
2023/10/25 04:51:37;;;;;;;3.57;0.53;;;;;;;7.07;100.00;147943.94;5025250;28;20230;-52
2023/10/25 04:54:05;;;;;;;3.77;0.70;;;;;;;7.16;100.00;147965.09;5022420;28;20236;-51
2023/10/25 04:56:31;;;;;;;2.53;0.60;;;;;;;7.25;100.00;147986.19;5025493;28;20319;-52
2023/10/25 04:58:58;;;;;;;0.93;0.70;;;;;;;7.32;100.00;148002.38;5023291;28;20243;-52
2023/10/25 05:01:24;;;;;;;3.33;0.80;;;;;;;7.35;100.00;148009.81;5025608;28;20240;-54
2023/10/25 05:03:51;;;;;;;4.40;0.63;;;;;;;7.32;100.00;148002.38;5023079;28;20554;-52
2023/10/25 05:06:19;;;;;;;2.47;0.60;;;;;;;7.32;100.00;148002.38;5024546;28;20220;-52
2023/10/25 05:08:47;;;;;;;3.00;0.80;;;;;;;7.31;100.00;147999.88;5020714;28;20600;-51
2023/10/25 05:11:15;;;;;;;0.70;0.60;;;;;;;7.40;100.00;148022.25;5025579;28;20239;-53
2023/10/25 05:13:43;;;;;;;5.23;0.70;;;;;;;7.44;100.00;148030.94;5023681;28;20235;-51
2023/10/25 05:16:11;;;;;;;2.20;0.50;;;;;;;7.47;100.00;148038.41;5024043;28;20719;-51
2023/10/25 05:18:38;;;;;;;1.40;0.90;;;;;;;7.50;100.00;148047.06;5025429;28;20240;-52
2023/10/25 05:21:05;;;;;;;3.75;0.60;;;;;;;7.47;100.00;148038.41;5020460;28;20434;-51
2023/10/25 05:23:35;;;;;;;2.97;0.50;;;;;;;7.36;100.00;148013.53;5025001;28;20220;-52
2023/10/25 05:26:03;;;;;;;13.37;7.50;;;;;;;7.29;100.00;147994.91;5022273;28;20314;-51
2023/10/25 05:28:31;;;;;;;2.00;1.77;;;;;;;7.24;100.00;147983.72;5025185;28;20221;-53
2023/10/25 05:31:01;;;;;;;3.03;0.93;;;;;;;7.19;100.00;147972.53;5021726;28;20263;-53
2023/10/25 05:33:28;;;;;;;2.60;0.97;;;;;;;7.13;100.00;147956.38;5024416;28;20454;-54
2023/10/25 05:35:55;;;;;;;2.60;0.63;;;;;;;7.12;100.00;147955.16;5022186;28;20232;-54
2023/10/25 05:38:23;;;;;;;2.47;0.73;;;;;;;7.11;100.00;147951.41;5025062;28;20223;-53
2023/10/25 05:40:53;;;;;;;1.80;0.80;;;;;;;7.04;100.00;147935.28;5021729;28;20733;-53
2023/10/25 05:43:24;;;;;;;4.13;0.67;;;;;;;7.01;100.00;147927.81;5022882;28;20227;-53
2023/10/25 05:45:50;;;;;;;0.83;0.53;;;;;;;6.93;100.00;147910.41;5021895;28;20207;-52
2023/10/25 05:48:17;;;;;;;1.70;0.40;;;;;;;6.90;100.00;147902.97;5024888;28;20231;-51
2023/10/25 05:50:45;;;;;;;3.13;0.53;;;;;;;6.94;100.00;147911.63;5021147;28;20699;-52
2023/10/25 05:53:12;;;;;;;2.33;0.47;;;;;;;6.92;100.00;147907.94;5025549;28;20232;-53
2023/10/25 05:55:41;;;;;;;2.17;0.40;;;;;;;6.90;100.00;147902.97;5024412;28;20255;-53
2023/10/25 05:58:10;;;;;;;2.53;0.60;;;;;;;6.90;100.00;147902.97;5021452;28;20307;-54
2023/10/25 06:00:37;;;;;;;4.00;0.40;;;;;;;6.92;100.00;147906.66;5024725;28;20230;-54
2023/10/25 06:03:04;;;;;;;1.70;0.40;;;;;;;6.89;100.00;147900.47;5020807;28;20232;-51
2023/10/25 06:05:37;;;;;;;2.17;0.40;;;;;;;6.90;100.00;147901.69;5024799;28;20572;-52
2023/10/25 06:08:04;;;;;;;0.30;0.30;;;;;;;6.92;100.00;147906.66;5021743;28;20231;-52
2023/10/25 06:10:37;;;;;;;1.67;0.50;;;;;;;6.88;100.00;147898.00;5024741;28;20224;-51
2023/10/25 06:13:05;;;;;;;3.40;0.40;;;;;;;6.97;100.00;147917.88;5021250;28;20318;-51
2023/10/25 06:15:38;;;;;;;2.83;0.40;;;;;;;6.97;100.00;147919.09;5024903;28;20718;-51
2023/10/25 06:18:07;;;;;;;1.50;0.80;;;;;;;7.03;100.00;147932.78;5019812;28;20231;-51
2023/10/25 06:20:37;;;;;;;4.10;0.60;;;;;;;7.11;100.00;147951.41;5023485;28;20232;-51
2023/10/25 06:23:03;;;;;;;2.33;0.60;;;;;;;7.17;100.00;147967.56;5020888;28;20684;-52
2023/10/25 06:25:30;;;;;;;2.77;1.27;;;;;;;7.28;100.00;147992.44;5024331;28;20232;-51
2023/10/25 06:27:59;;;;;;;4.60;1.10;;;;;;;7.40;100.00;148022.25;5021329;28;20232;-51
2023/10/25 06:30:26;;;;;;;2.00;0.70;;;;;;;7.54;100.00;148057.00;5023412;28;20232;-52
2023/10/25 06:32:54;;;;;;;3.77;1.10;;;;;;;7.65;100.00;148081.88;5020348;28;20251;-53
2023/10/25 06:35:21;;;;;;;3.83;2.03;;;;;;;7.79;100.00;148116.69;5023667;28;20316;-52
2023/10/25 06:37:48;;;;;;;5.27;1.90;;;;;;;7.91;100.00;148145.31;5019919;28;20225;-51
2023/10/25 06:40:15;;;;;;;0.60;0.60;;;;;;;8.06;100.00;148181.34;5024356;28;20596;-52
2023/10/25 06:42:42;;;;;;;6.53;3.53;;;;;;;8.12;100.00;148195.00;5023590;28;20296;-52
2023/10/25 06:45:13;;;;;;;6.93;2.70;;;;;;;8.22;100.00;148219.88;5022329;28;20241;-52
2023/10/25 06:47:41;;;;;;;4.57;3.30;;;;;;;8.34;100.00;148248.50;5024154;28;20235;-52
2023/10/25 06:50:11;;;;;;;1.57;1.03;;;;;;;8.42;100.00;148268.41;5021674;28;20297;-53
2023/10/25 06:52:39;;;;;;;0.60;0.60;;;;;;;8.49;100.00;148283.31;5022657;28;20235;-52
2023/10/25 06:55:06;;;;;;;1.53;0.60;;;;;;;8.48;100.00;148280.84;5021693;28;20233;-52
2023/10/25 06:57:34;;;;;;;1.10;0.70;;;;;;;8.46;100.00;148275.84;5027375;28;20227;-51
2023/10/25 07:00:01;;;;;;;3.83;1.70;;;;;;;8.42;100.00;148268.41;5025346;28;20224;-52
2023/10/25 07:02:37;;;;;;;1.63;1.07;;;;;;;8.37;100.00;148254.69;5027078;28;20320;-52
2023/10/25 07:05:11;;;;;;;1.57;0.90;;;;;;;8.38;100.00;148257.19;5024684;28;20229;-53
2023/10/25 07:07:39;;;;;;;2.73;0.90;;;;;;;8.37;100.00;148255.97;5027981;28;20225;-51
2023/10/25 07:10:08;;;;;;;1.60;0.70;;;;;;;8.42;100.00;148268.41;5025333;28;20698;-52
2023/10/25 07:12:35;;;;;;;4.87;1.00;;;;;;;8.54;100.00;148295.75;5027223;28;20234;-52
2023/10/25 07:15:01;;;;;;;4.57;0.73;;;;;;;8.68;100.00;148330.59;5024938;28;20224;-53
2023/10/25 07:17:28;;;;;;;2.20;0.80;;;;;;;8.84;100.00;148369.19;5025979;28;20222;-52
2023/10/25 07:19:55;;;;;;;3.40;0.80;;;;;;;9.05;100.00;148418.91;5024514;28;20596;-53
2023/10/25 07:22:23;;;;;;;2.30;0.80;;;;;;;9.15;100.00;148443.78;5027002;28;20333;-51
2023/10/25 07:24:49;;;;;;;2.47;0.70;;;;;;;9.25;100.00;148467.47;5024731;28;20220;-52
2023/10/25 07:27:16;;;;;;;1.33;0.60;;;;;;;9.33;100.00;148486.09;5009318;28;20232;-52
2023/10/25 07:29:42;;;;;;;1.63;0.90;;;;;;;9.38;100.00;148497.31;5026398;28;20750;-54
2023/10/25 07:32:09;;;;;;;1.90;1.60;;;;;;;9.50;100.00;148527.19;5025777;28;20225;-53
2023/10/25 07:34:37;;;;;;;5.30;1.00;;;;;;;9.51;100.00;148529.69;5026737;28;20227;-51
2023/10/25 07:37:04;;;;;;;1.73;1.20;;;;;;;9.57;100.00;148543.34;5023041;28;20834;-53
2023/10/25 07:39:32;;;;;;;5.47;2.97;;;;;;;9.57;100.00;148544.56;5026787;28;20236;-51
2023/10/25 07:42:01;;;;;;;15.70;8.63;;;;;;;9.64;100.00;148559.50;5022355;28;20262;-51
2023/10/25 07:44:27;;;;;;;15.30;8.47;;;;;;;9.85;100.00;148610.56;5026073;28;20311;-52
2023/10/25 07:46:54;;;;;;;12.97;7.77;;;;;;;10.01;100.00;148650.41;5024050;28;20219;-51
2023/10/25 07:49:21;;;;;;;4.47;3.43;;;;;;;10.07;100.00;148662.88;5027102;28;20220;-52
2023/10/25 07:51:47;;;;;;;5.87;3.73;;;;;;;10.16;100.00;148685.22;5023386;28;20216;-52
2023/10/25 07:54:14;;;;;;;5.70;3.93;;;;;;;10.35;100.00;148731.34;5026622;28;20237;-54
2023/10/25 07:56:42;;;;;;;11.40;8.40;;;;;;;10.45;100.00;148756.28;5027111;28;20228;-54
2023/10/25 07:59:09;;;;;;;7.23;4.60;;;;;;;10.52;100.00;148771.22;5024519;28;20256;-54
2023/10/25 08:01:37;;;;;;;5.97;3.00;;;;;;;10.67;100.00;148808.56;5026971;28;20247;-54
2023/10/25 08:04:05;;;;;;;7.93;4.13;;;;;;;10.68;100.00;148811.03;5023973;28;20770;-54
2023/10/25 08:06:31;;;;;;;4.57;3.57;;;;;;;10.86;100.00;148854.66;5026073;28;20236;-53
2023/10/25 08:08:58;;;;;;;6.20;2.83;;;;;;;10.96;100.00;148878.31;5023594;28;20573;-52
2023/10/25 08:11:24;;;;;;;4.00;2.70;;;;;;;10.95;100.00;148875.81;5026643;28;20225;-51
2023/10/25 08:13:52;;;;;;;3.67;3.00;;;;;;;10.83;100.00;148847.19;5023644;28;20233;-51
2023/10/25 08:16:19;;;;;;;4.73;2.57;;;;;;;10.89;100.00;148862.16;5026658;28;20236;-51
2023/10/25 08:18:46;;;;;;;5.63;3.10;;;;;;;10.97;100.00;148880.81;5023868;28;20257;-54
2023/10/25 08:21:13;;;;;;;5.90;2.40;;;;;;;11.00;100.00;148888.28;5025963;28;20233;-51
2023/10/25 08:23:40;;;;;;;4.00;3.10;;;;;;;10.96;100.00;148877.09;5026565;28;20221;-51
2023/10/25 08:26:07;;;;;;;3.87;2.60;;;;;;;11.03;100.00;148895.75;5023284;28;20648;-52
2023/10/25 08:28:33;;;;;;;6.87;4.07;;;;;;;10.82;100.00;148843.44;5026439;28;20237;-51
2023/10/25 08:31:10;;;;;;;9.40;5.47;;;;;;;10.67;100.00;148808.56;5023065;28;20229;-51
2023/10/25 08:33:37;;;;;;;8.40;6.37;;;;;;;10.83;100.00;148845.94;5025611;28;20287;-51
2023/10/25 08:36:04;;;;;;;8.63;6.10;;;;;;;10.97;100.00;148880.81;5023729;28;20284;-53
2023/10/25 08:38:31;;;;;;;5.80;4.67;;;;;;;10.96;100.00;148877.09;5025412;28;20233;-51
2023/10/25 08:41:02;;;;;;;6.93;5.17;;;;;;;11.28;100.00;148954.31;5022785;28;20226;-54
2023/10/25 08:43:28;;;;;;;12.23;6.93;;;;;;;11.37;100.00;148976.72;5025465;28;20222;-54
2023/10/25 08:45:56;;;;;;;11.77;9.47;;;;;;;11.54;100.00;149016.63;5022281;28;20228;-54
2023/10/25 08:48:25;;;;;;;2.77;2.40;;;;;;;11.90;100.00;149105.09;5024927;28;20229;-51
2023/10/25 08:50:52;;;;;;;8.17;7.37;;;;;;;12.04;100.00;149137.56;5023258;28;20225;-54
2023/10/25 08:53:23;;;;;;;6.40;2.17;;;;;;;12.19;100.00;149173.72;5025860;28;20233;-51
2023/10/25 08:55:52;;;;;;;7.57;5.73;;;;;;;12.24;100.00;149187.44;5022901;28;20309;-53
2023/10/25 08:58:19;;;;;;;9.67;8.67;;;;;;;12.28;100.00;149196.13;5025864;28;20285;-53
2023/10/25 09:00:46;;;;;;;1.00;0.60;;;;;;;12.09;100.00;149151.28;5022939;28;20231;-52
2023/10/25 09:03:44;;;;;;;2.10;0.83;;;;;;;12.08;100.00;149148.78;5025737;28;20226;-53
2023/10/25 09:06:12;;;;;;;1.90;1.70;;;;;;;12.17;100.00;149169.97;5022650;28;20769;-51
2023/10/25 09:08:39;;;;;;;4.53;1.20;;;;;;;12.15;100.00;149164.97;5025689;28;20705;-51
2023/10/25 09:11:08;;;;;;;1.57;0.43;;;;;;;12.00;100.00;149127.56;5023032;28;20234;-52
2023/10/25 09:13:37;;;;;;;1.83;0.90;;;;;;;12.14;100.00;149162.50;4996988;28;20574;-51
2023/10/25 09:16:06;;;;;;;1.03;0.50;;;;;;;12.23;100.00;149183.66;5022460;28;20249;-51
2023/10/25 09:18:34;;;;;;;3.43;1.27;;;;;;;12.30;100.00;149201.13;5023942;28;20220;-51
2023/10/25 09:21:03;;;;;;;3.10;1.33;;;;;;;12.58;100.00;149267.25;5021400;28;20679;-53
2023/10/25 09:23:33;;;;;;;4.80;1.63;;;;;;;12.67;100.00;149289.69;5025057;28;20250;-52
2023/10/25 09:26:00;;;;;;;6.73;3.60;;;;;;;12.35;100.00;149212.38;5021381;28;20749;-54
2023/10/25 09:28:29;;;;;;;8.60;3.90;;;;;;;12.32;100.00;149206.09;5025046;28;20232;-54
2023/10/25 09:30:56;;;;;;;6.03;3.40;;;;;;;12.31;100.00;149202.38;5022490;28;20227;-54
2023/10/25 09:33:23;;;;;;;9.27;3.80;;;;;;;12.24;100.00;149187.44;5025376;28;20233;-54
2023/10/25 09:35:50;;;;;;;4.80;2.87;;;;;;;12.39;100.00;149223.56;5022367;28;20234;-53
2023/10/25 09:38:19;;;;;;;2.23;1.40;;;;;;;12.44;100.00;149234.81;5024438;28;20285;-52
2023/10/25 09:40:46;;;;;;;5.70;2.40;;;;;;;12.47;100.00;149241.03;5021434;28;20223;-53
2023/10/25 09:43:15;;;;;;;2.20;1.10;;;;;;;12.35;100.00;149213.59;5024698;28;20236;-52
2023/10/25 09:45:43;;;;;;;6.13;3.50;;;;;;;12.29;100.00;149198.63;5024715;28;20604;-52
2023/10/25 09:48:12;;;;;;;6.77;3.93;;;;;;;12.50;100.00;149249.78;5022276;28;20293;-52
2023/10/25 09:50:44;;;;;;;6.93;3.70;;;;;;;12.72;100.00;149300.88;5013855;28;20264;-51
2023/10/25 09:53:17;;;;;;;2.73;1.60;;;;;;;12.95;100.00;149357.00;5022320;28;20237;-51
2023/10/25 09:55:54;;;;;;;2.83;1.50;;;;;;;13.17;100.00;149409.41;5021953;28;20219;-53
2023/10/25 09:58:23;;;;;;;1.97;1.33;;;;;;;13.46;100.00;149480.53;5024698;28;20223;-54
2023/10/25 10:00:50;;;;;;;2.33;0.80;;;;;;;13.68;100.00;149532.97;5020564;28;20252;-52
2023/10/25 10:03:25;;;;;;;1.10;0.40;;;;;;;14.06;98.15;149625.31;5024791;28;20776;-54
2023/10/25 10:05:59;;;;;;;0.63;0.50;;;;;;;14.26;99.42;149672.75;5021653;28;20226;-51
2023/10/25 10:08:37;;;;;;;2.67;0.70;;;;;;;14.36;95.20;149696.47;5024625;28;20233;-53
2023/10/25 10:11:12;;;;;;;1.93;0.60;;;;;;;14.44;94.95;149717.66;4995134;28;20706;-52
2023/10/25 10:13:39;;;;;;;5.33;3.40;;;;;;;14.56;96.47;149745.13;5023798;28;20230;-52
2023/10/25 10:16:09;;;;;;;1.47;0.67;;;;;;;14.41;95.04;149708.94;5021688;28;20244;-53
2023/10/25 10:18:37;;;;;;;1.07;0.40;;;;;;;14.31;91.66;149686.47;5024199;28;20694;-53
2023/10/25 10:21:05;;;;;;;2.20;0.50;;;;;;;14.42;94.43;149711.44;5020460;28;20235;-53
2023/10/25 10:23:36;;;;;;;5.40;1.00;;;;;;;14.40;91.53;149707.69;5023850;28;20356;-53
2023/10/25 10:26:05;;;;;;;1.90;1.20;;;;;;;14.39;89.08;149703.97;5021203;28;20264;-52
2023/10/25 10:28:43;;;;;;;1.40;0.63;;;;;;;14.22;89.33;149664.00;5024218;28;20227;-53
2023/10/25 10:31:10;;;;;;;2.83;0.60;;;;;;;14.24;90.56;149667.78;5021041;28;20591;-51
2023/10/25 10:33:45;;;;;;;5.87;1.33;;;;;;;14.40;92.04;149706.47;5023502;28;20231;-51
2023/10/25 10:36:13;;;;;;;12.00;7.40;;;;;;;14.45;89.32;149720.16;5021353;28;20233;-51
2023/10/25 10:39:11;;;;;;;1.53;0.70;;;;;;;15.01;87.35;149855.09;5023959;28;20220;-52
2023/10/25 10:41:39;;;;;;;1.80;0.60;;;;;;;15.06;86.41;149866.31;5021442;28;20290;-52
2023/10/25 10:44:06;;;;;;;5.90;3.87;;;;;;;15.20;88.21;149901.28;5021123;28;20705;-51
2023/10/25 10:46:38;;;;;;;2.40;0.70;;;;;;;15.26;82.91;149913.78;5023648;28;20238;-52
2023/10/25 10:49:11;;;;;;;3.20;0.60;;;;;;;15.16;82.98;149891.28;5020352;28;20235;-54
2023/10/25 10:51:38;;;;;;;1.83;0.97;;;;;;;15.39;85.40;149946.25;5023586;28;20306;-53
2023/10/25 10:54:05;;;;;;;2.00;0.73;;;;;;;15.31;83.64;149927.53;5021164;28;20237;-51
2023/10/25 10:56:32;;;;;;;3.80;1.00;;;;;;;15.47;81.27;149966.25;5022768;28;20236;-53
2023/10/25 10:59:00;;;;;;;0.80;0.50;;;;;;;15.41;82.41;149951.25;5021168;28;20741;-51
2023/10/25 11:01:27;;;;;;;2.27;0.87;;;;;;;15.32;80.21;149930.03;5022410;28;20241;-52
2023/10/25 11:03:57;;;;;;;3.83;0.60;;;;;;;15.42;85.01;149952.50;5020531;28;20219;-54
2023/10/25 11:06:24;;;;;;;2.07;0.67;;;;;;;15.53;81.25;149978.75;5024156;28;20243;-52
2023/10/25 11:08:51;;;;;;;2.10;0.60;;;;;;;15.44;80.47;149957.47;5021399;28;20240;-53
2023/10/25 11:11:19;;;;;;;0.83;0.43;;;;;;;15.27;82.89;149916.28;5022621;28;20239;-54
2023/10/25 11:13:46;;;;;;;2.07;1.00;;;;;;;15.17;83.46;149892.56;5020485;28;20228;-54
2023/10/25 11:16:14;;;;;;;0.87;0.33;;;;;;;15.16;82.63;149891.28;5023328;28;20240;-54
2023/10/25 11:18:41;;;;;;;4.17;1.63;;;;;;;15.09;83.78;149872.59;5023548;28;20595;-52
2023/10/25 11:21:08;;;;;;;3.77;0.80;;;;;;;14.91;87.66;149831.34;5020808;28;20240;-54
2023/10/25 11:23:35;;;;;;;1.30;0.50;;;;;;;14.63;92.32;149762.63;5023105;28;20235;-51
2023/10/25 11:26:03;;;;;;;2.63;0.60;;;;;;;14.47;95.39;149723.94;5020221;28;20703;-52
2023/10/25 11:28:30;;;;;;;3.57;0.80;;;;;;;14.38;95.14;149701.47;5023467;28;20238;-51
2023/10/25 11:31:03;;;;;;;1.27;0.70;;;;;;;14.43;94.57;149715.16;5008810;28;20237;-51